createdAt,value
2023-01-11T00:00:57.921Z,99797.03
2023-01-11T00:03:46.022Z,99771.94
2023-01-11T00:06:36.682Z,99802.34
2023-01-11T00:09:24.586Z,99769.06
2023-01-11T00:12:14.414Z,99805.06
2023-01-11T00:15:02.176Z,99817.59
2023-01-11T00:17:49.824Z,99825.13
2023-01-11T00:20:41.819Z,99824.00
2023-01-11T00:23:35.873Z,99830.47
2023-01-11T00:26:23.775Z,99829.81
2023-01-11T00:29:11.364Z,99791.56
2023-01-11T00:31:59.026Z,99817.78
2023-01-11T00:34:49.389Z,99828.69
2023-01-11T00:37:37.265Z,99829.50
2023-01-11T00:40:26.526Z,99829.19
2023-01-11T00:43:32.592Z,99834.31
2023-01-11T00:46:38.984Z,99823.41
2023-01-11T00:49:27.142Z,99834.47
2023-01-11T00:52:14.896Z,99812.09
2023-01-11T00:55:02.856Z,99857.16
2023-01-11T00:57:53.193Z,99836.56
2023-01-11T01:00:40.916Z,99826.63
2023-01-11T01:03:28.519Z,99852.19
2023-01-11T01:06:16.233Z,99817.59
2023-01-11T01:09:04.064Z,99842.03
2023-01-11T01:11:51.875Z,99852.50
2023-01-11T01:14:39.592Z,99829.94
2023-01-11T01:17:27.655Z,99838.66
2023-01-11T01:20:15.835Z,99851.81
2023-01-11T01:23:03.747Z,99851.38
2023-01-11T01:25:53.618Z,99863.56
2023-01-11T01:28:41.293Z,99859.09
2023-01-11T01:31:29.031Z,99829.31
2023-01-11T01:34:17.106Z,99869.84
2023-01-11T01:37:08.806Z,99867.59
2023-01-11T01:39:56.548Z,99871.44
2023-01-11T01:42:44.295Z,99884.44
2023-01-11T01:45:32.008Z,99881.66
2023-01-11T01:48:25.569Z,99885.69
2023-01-11T01:51:19.414Z,99897.59
2023-01-11T01:54:11.965Z,99871.03
2023-01-11T01:57:25.645Z,99895.81
2023-01-11T02:00:14.253Z,99907.41
2023-01-11T02:03:04.695Z,99913.50
2023-01-11T02:05:53.891Z,99903.38
2023-01-11T02:08:47.147Z,99889.06
2023-01-11T02:11:35.209Z,99910.13
2023-01-11T02:14:23.684Z,99907.88
2023-01-11T02:17:14.126Z,99905.03
2023-01-11T02:20:14.257Z,99912.72
2023-01-11T02:23:35.234Z,99883.72
2023-01-11T02:26:25.800Z,99909.38
2023-01-11T02:29:34.532Z,99905.19
2023-01-11T02:32:58.136Z,99902.09
2023-01-11T02:36:14.083Z,99918.53
2023-01-11T02:39:15.741Z,99867.47
2023-01-11T02:42:56.773Z,99915.41
2023-01-11T02:45:56.807Z,99883.41
2023-01-11T02:49:04.738Z,99869.53
2023-01-11T02:52:05.590Z,99929.38
2023-01-11T02:54:58.661Z,99895.56
2023-01-11T02:57:48.536Z,99928.25
2023-01-11T03:00:43.555Z,99943.03
2023-01-11T03:03:34.504Z,99929.53
2023-01-11T03:06:27.388Z,99952.34
2023-01-11T03:09:27.238Z,99952.34
2023-01-11T03:12:55.069Z,99928.00
2023-01-11T03:16:19.445Z,99963.94
2023-01-11T03:19:47.236Z,99961.38
2023-01-11T03:22:37.796Z,99955.25
2023-01-11T03:25:31.739Z,99957.16
2023-01-11T03:28:34.951Z,99927.47
2023-01-11T03:31:32.716Z,99977.88
2023-01-11T03:34:44.973Z,99974.34
2023-01-11T03:38:27.942Z,99984.63
2023-01-11T03:41:21.737Z,99979.66
2023-01-11T03:44:13.091Z,99937.63
2023-01-11T03:47:09.264Z,99990.75
2023-01-11T03:50:11.267Z,99964.03
2023-01-11T03:53:01.031Z,99981.41
2023-01-11T03:55:56.727Z,99998.75
2023-01-11T03:58:44.758Z,99975.63
2023-01-11T04:01:32.602Z,100001.38
2023-01-11T04:04:20.505Z,99985.78
2023-01-11T04:07:08.216Z,99986.09
2023-01-11T04:09:56.062Z,99988.47
2023-01-11T04:12:48.746Z,99989.75
2023-01-11T04:15:36.675Z,99989.22
2023-01-11T04:18:24.228Z,100009.03
2023-01-11T04:21:14.094Z,99997.84
2023-01-11T04:24:01.794Z,99981.13
2023-01-11T04:26:49.541Z,100015.84
2023-01-11T04:29:39.343Z,100015.28
2023-01-11T04:32:27.201Z,100020.75
2023-01-11T04:35:15.127Z,100028.34
2023-01-11T04:38:02.853Z,100001.41
2023-01-11T04:41:10.538Z,100028.63
2023-01-11T04:43:58.340Z,100021.13
2023-01-11T04:46:45.917Z,100028.81
2023-01-11T04:49:33.731Z,100027.19
2023-01-11T04:52:23.448Z,100017.25
2023-01-11T04:55:16.165Z,100010.00
2023-01-11T04:58:06.293Z,100035.03
2023-01-11T05:00:53.932Z,100040.47
2023-01-11T05:03:41.633Z,100044.38
2023-01-11T05:06:29.481Z,100054.38
2023-01-11T05:09:18.697Z,100060.63
2023-01-11T05:12:06.906Z,100063.59
2023-01-11T05:14:54.827Z,100061.22
2023-01-11T05:17:43.111Z,100069.88
2023-01-11T05:20:30.943Z,100062.94
2023-01-11T05:23:18.768Z,100078.47
2023-01-11T05:26:15.766Z,100083.91
2023-01-11T05:29:09.846Z,100095.53
2023-01-11T05:31:57.719Z,100085.44
2023-01-11T05:34:47.899Z,100103.41
2023-01-11T05:37:35.628Z,100093.72
2023-01-11T05:40:23.380Z,100111.19
2023-01-11T05:43:11.040Z,100100.19
2023-01-11T05:46:01.946Z,100100.28
2023-01-11T05:48:49.662Z,100099.66
2023-01-11T05:51:38.532Z,100070.69
2023-01-11T05:54:26.337Z,100097.94
2023-01-11T05:57:14.114Z,100094.03
2023-01-11T06:00:01.759Z,100094.50
2023-01-11T06:02:54.047Z,100106.81
2023-01-11T06:05:41.699Z,100105.72
2023-01-11T06:08:29.503Z,100103.72
2023-01-11T06:11:17.196Z,100101.16
2023-01-11T06:14:04.919Z,100125.09
2023-01-11T06:16:52.758Z,100106.09
2023-01-11T06:19:40.541Z,100092.06
2023-01-11T06:22:28.156Z,100128.44
2023-01-11T06:25:15.913Z,100112.41
2023-01-11T06:28:06.507Z,100122.81
2023-01-11T06:30:56.327Z,100138.75
2023-01-11T06:33:44.128Z,100144.41
2023-01-11T06:36:35.313Z,100143.78
2023-01-11T06:39:27.592Z,100149.81
2023-01-11T06:42:28.516Z,100149.81
2023-01-11T06:45:23.955Z,100160.78
2023-01-11T06:48:29.553Z,100153.41
2023-01-11T06:51:17.466Z,100168.00
2023-01-11T06:54:05.400Z,100161.91
2023-01-11T06:56:52.959Z,100164.06
2023-01-11T06:59:42.163Z,100182.88
2023-01-11T07:02:29.927Z,100191.88
2023-01-11T07:05:19.451Z,100197.25
2023-01-11T07:08:10.406Z,100182.53
2023-01-11T07:10:58.171Z,100196.84
2023-01-11T07:13:45.972Z,100214.34
2023-01-11T07:16:33.795Z,100208.34
2023-01-11T07:19:21.475Z,100220.94
2023-01-11T07:22:09.255Z,100228.97
2023-01-11T07:24:56.898Z,100220.09
2023-01-11T07:27:47.191Z,100155.50
2023-01-11T07:30:51.872Z,100205.31
2023-01-11T07:33:44.309Z,100230.94
2023-01-11T07:36:31.991Z,100228.41
2023-01-11T07:39:19.753Z,100245.03
2023-01-11T07:42:25.557Z,100184.41
2023-01-11T07:45:18.536Z,100249.13
2023-01-11T07:48:11.065Z,100248.94
2023-01-11T07:50:58.820Z,100250.44
2023-01-11T07:53:47.427Z,100250.16
2023-01-11T07:56:35.441Z,100261.00
2023-01-11T07:59:26.391Z,100265.38
2023-01-11T08:02:14.133Z,100278.34
2023-01-11T08:05:03.155Z,100261.28
2023-01-11T08:07:51.188Z,100266.97
2023-01-11T08:10:41.259Z,100273.94
2023-01-11T08:13:51.073Z,100272.69
2023-01-11T08:16:39.224Z,100276.25
2023-01-11T08:19:27.007Z,100281.72
2023-01-11T08:22:18.305Z,100282.22
2023-01-11T08:25:06.424Z,100254.63
2023-01-11T08:27:54.053Z,100282.03
2023-01-11T08:30:41.854Z,100277.22
2023-01-11T08:33:29.576Z,100293.03
2023-01-11T08:36:17.231Z,100313.84
2023-01-11T08:39:04.988Z,100276.25
2023-01-11T08:41:52.695Z,100298.69
2023-01-11T08:44:40.426Z,100325.63
2023-01-11T08:47:28.272Z,100315.59
2023-01-11T08:50:17.526Z,100324.97
2023-01-11T08:53:05.692Z,100326.88
2023-01-11T08:55:53.944Z,100323.66
2023-01-11T08:58:41.625Z,100328.16
2023-01-11T09:01:29.528Z,100338.03
2023-01-11T09:04:24.722Z,100340.81
2023-01-11T09:07:12.700Z,100344.34
2023-01-11T09:10:03.093Z,100344.47
2023-01-11T09:12:52.155Z,100348.34
2023-01-11T09:15:39.919Z,100334.00
2023-01-11T09:18:29.997Z,100319.16
2023-01-11T09:21:18.786Z,100349.66
2023-01-11T09:24:06.803Z,100297.88
2023-01-11T09:26:54.608Z,100361.72
2023-01-11T09:29:42.413Z,100351.75
2023-01-11T09:32:30.141Z,100342.84
2023-01-11T09:35:19.436Z,100342.88
2023-01-11T09:38:07.309Z,100351.41
2023-01-11T09:41:38.211Z,100316.16
2023-01-11T09:44:27.678Z,100332.25
2023-01-11T09:47:25.582Z,100330.06
2023-01-11T09:50:22.270Z,100328.56
2023-01-11T09:53:15.528Z,100320.59
2023-01-11T09:56:06.690Z,100338.41
2023-01-11T09:59:05.613Z,100262.06
2023-01-11T10:02:25.826Z,100346.03
2023-01-11T10:05:29.974Z,100308.06
2023-01-11T10:18:27.590Z,100359.25
2023-01-11T10:19:39.945Z,100368.13
2023-01-11T10:22:39.993Z,100369.28
2023-01-11T10:25:34.210Z,100381.22
2023-01-11T10:28:46.087Z,100386.97
2023-01-11T10:31:45.910Z,100384.91
2023-01-11T10:35:00.109Z,100373.00
2023-01-11T10:37:55.855Z,100364.81
2023-01-11T10:41:12.344Z,100349.84
2023-01-11T10:44:09.171Z,100382.25
2023-01-11T10:47:00.037Z,100371.78
2023-01-11T10:50:25.823Z,100376.59
2023-01-11T10:53:29.594Z,100372.56
2023-01-11T10:56:24.723Z,100370.78
2023-01-11T10:59:30.698Z,100305.63
2023-01-11T11:02:22.442Z,100376.13
2023-01-11T11:05:26.995Z,100379.69
2023-01-11T11:08:28.436Z,100391.47
2023-01-11T11:11:22.670Z,100402.09
2023-01-11T11:14:13.136Z,100401.31
2023-01-11T11:17:16.187Z,100364.97
2023-01-11T11:20:29.077Z,100388.88
2023-01-11T11:23:22.147Z,100398.56
2023-01-11T11:26:10.914Z,100392.94
2023-01-11T11:29:03.537Z,100404.81
2023-01-11T11:31:51.675Z,100408.59
2023-01-11T11:34:47.537Z,100412.63
2023-01-11T11:37:40.933Z,100411.94
2023-01-11T11:40:30.696Z,100386.13
2023-01-11T11:43:26.094Z,100405.97
2023-01-11T11:46:20.146Z,100396.63
2023-01-11T11:49:16.153Z,100405.31
2023-01-11T11:52:05.955Z,100403.25
2023-01-11T11:54:57.927Z,100386.94
2023-01-11T11:57:45.823Z,100401.97
2023-01-11T12:00:40.235Z,100397.28
2023-01-11T12:03:32.522Z,100426.47
2023-01-11T12:06:26.821Z,100401.97
2023-01-11T12:09:30.203Z,100425.84
2023-01-11T12:12:21.099Z,100413.72
2023-01-11T12:15:29.026Z,100427.59
2023-01-11T12:18:29.156Z,100406.75
2023-01-11T12:21:16.840Z,100436.34
2023-01-11T12:24:23.946Z,100431.13
2023-01-11T12:27:37.370Z,100435.47
2023-01-11T12:30:46.210Z,100436.91
2023-01-11T12:33:33.847Z,100439.84
2023-01-11T12:36:29.581Z,100444.63
2023-01-11T12:39:26.651Z,100448.13
2023-01-11T12:42:32.266Z,100451.19
2023-01-11T12:45:25.771Z,100458.19
2023-01-11T12:48:21.975Z,100449.91
2023-01-11T12:51:16.616Z,100442.00
2023-01-11T12:54:24.175Z,100451.19
2023-01-11T12:57:28.182Z,100452.47
2023-01-11T13:00:29.206Z,100454.06
2023-01-11T13:03:50.630Z,100457.25
2023-01-11T13:07:11.052Z,100464.38
2023-01-11T13:10:17.021Z,100459.72
2023-01-11T13:13:15.272Z,100462.09
2023-01-11T13:16:14.624Z,100460.16
2023-01-11T13:19:15.222Z,100436.31
2023-01-11T13:22:06.365Z,100426.75
2023-01-11T13:24:53.996Z,100469.63
2023-01-11T13:27:42.490Z,100435.09
2023-01-11T13:30:32.022Z,100469.00
2023-01-11T13:33:23.328Z,100488.84
2023-01-11T13:36:23.428Z,100461.09
2023-01-11T13:39:20.217Z,100493.63
2023-01-11T13:42:22.523Z,100492.94
2023-01-11T13:45:21.966Z,100462.09
2023-01-11T13:48:34.021Z,100476.56
2023-01-11T13:51:52.163Z,100462.97
2023-01-11T13:54:53.888Z,100450.22
2023-01-11T13:58:01.462Z,100460.00
2023-01-11T14:00:54.462Z,100487.31
2023-01-11T14:03:53.173Z,100482.47
2023-01-11T14:06:43.713Z,100492.22
2023-01-11T14:10:02.174Z,100461.44
2023-01-11T14:13:42.967Z,100496.97
2023-01-11T14:17:01.239Z,100479.50
2023-01-11T14:19:49.058Z,100500.19
2023-01-11T14:22:44.840Z,100518.09
2023-01-11T14:25:45.117Z,100474.91
2023-01-11T14:29:00.374Z,100522.66
2023-01-11T14:32:13.931Z,100523.31
2023-01-11T14:35:40.510Z,100540.72
2023-01-11T14:38:28.157Z,100531.75
2023-01-11T14:41:49.182Z,100540.06
2023-01-11T14:44:57.200Z,100547.59
2023-01-11T14:47:59.837Z,100546.16
2023-01-11T14:51:09.957Z,100526.09
2023-01-11T14:54:07.112Z,100553.97
2023-01-11T14:56:59.069Z,100550.22
2023-01-11T14:59:46.871Z,100556.22
2023-01-11T15:02:34.503Z,100541.13
2023-01-11T15:05:31.700Z,100571.69
2023-01-11T15:08:28.727Z,100578.56
2023-01-11T15:11:24.771Z,100554.50
2023-01-11T15:14:29.700Z,100585.50
2023-01-11T15:17:38.335Z,100584.09
2023-01-11T15:20:27.174Z,100584.28
2023-01-11T15:23:18.017Z,100600.00
2023-01-11T15:26:09.790Z,100572.97
2023-01-11T15:29:01.812Z,100596.16
2023-01-11T15:32:13.461Z,100587.44
2023-01-11T15:35:31.899Z,100599.91
2023-01-11T15:38:52.806Z,100602.31
2023-01-11T15:42:07.138Z,100601.03
2023-01-11T15:44:57.998Z,100607.31
2023-01-11T15:48:06.476Z,100611.66
2023-01-11T15:51:01.723Z,100607.22
2023-01-11T15:54:34.548Z,100618.19
2023-01-11T15:57:47.176Z,100619.31
2023-01-11T16:00:48.692Z,100617.06
2023-01-11T16:04:16.489Z,100609.88
2023-01-11T16:07:15.779Z,100623.03
2023-01-11T16:10:33.125Z,100629.50
2023-01-11T16:13:58.625Z,100631.13
2023-01-11T16:16:54.785Z,100591.72
2023-01-11T16:19:46.180Z,100631.44
2023-01-11T16:22:34.627Z,100629.72
2023-01-11T16:25:25.704Z,100593.16
2023-01-11T16:28:20.487Z,100646.78
2023-01-11T16:31:09.921Z,100565.28
2023-01-11T16:34:15.403Z,100633.59
2023-01-11T16:37:18.336Z,100634.53
2023-01-11T16:40:28.719Z,100664.81
2023-01-11T16:43:40.066Z,100667.88
2023-01-11T16:46:50.610Z,100672.63
2023-01-11T16:49:41.571Z,100674.88
2023-01-11T16:52:29.330Z,100628.19
2023-01-11T16:55:21.462Z,100669.22
2023-01-11T16:58:27.116Z,100666.66
2023-01-11T17:01:16.533Z,100677.63
2023-01-11T17:04:07.299Z,100683.41
2023-01-11T17:07:12.183Z,100681.59
2023-01-11T17:10:16.035Z,100686.03
2023-01-11T17:13:29.583Z,100696.78
2023-01-11T17:16:18.575Z,100699.19
2023-01-11T17:19:13.491Z,100698.69
2023-01-11T17:22:15.560Z,100681.16
2023-01-11T17:25:44.296Z,100692.41
2023-01-11T17:28:32.446Z,100685.03
2023-01-11T17:31:27.372Z,100647.34
2023-01-11T17:34:39.343Z,100649.06
2023-01-11T17:37:27.386Z,100678.03
2023-01-11T17:40:38.232Z,100689.72
2023-01-11T17:43:47.400Z,100671.56
2023-01-11T17:46:35.348Z,100624.16
2023-01-11T17:49:26.264Z,100665.78
2023-01-11T17:52:23.083Z,100673.47
2023-01-11T17:55:20.544Z,100693.84
2023-01-11T17:58:19.295Z,100691.44
2023-01-11T18:01:14.471Z,100703.38
2023-01-11T18:04:02.272Z,100676.41
2023-01-11T18:07:17.854Z,100691.31
2023-01-11T18:10:05.964Z,100688.06
2023-01-11T18:12:56.712Z,100672.97
2023-01-11T18:15:47.678Z,100673.88
2023-01-11T18:18:42.305Z,100694.44
2023-01-11T18:21:51.414Z,100700.13
2023-01-11T18:24:43.951Z,100706.81
2023-01-11T18:27:35.461Z,100705.19
2023-01-11T18:30:32.048Z,100710.06
2023-01-11T18:33:24.120Z,100711.47
2023-01-11T18:36:21.783Z,100696.56
2023-01-11T18:39:12.826Z,100711.28
2023-01-11T18:42:08.438Z,100719.38
2023-01-11T18:45:04.676Z,100621.41
2023-01-11T18:47:52.997Z,100690.31
2023-01-11T18:50:45.423Z,100714.31
2023-01-11T18:53:33.296Z,100733.28
2023-01-11T18:56:22.100Z,100719.47
2023-01-11T18:59:15.225Z,100735.94
2023-01-11T19:02:25.029Z,100736.50
2023-01-11T19:05:20.924Z,100717.44
2023-01-11T19:08:08.744Z,100655.81
2023-01-11T19:10:58.833Z,100736.91
2023-01-11T19:13:50.625Z,100743.75
2023-01-11T19:16:38.396Z,100722.66
2023-01-11T19:19:26.711Z,100748.72
2023-01-11T19:22:14.442Z,100723.84
2023-01-11T19:25:02.255Z,100739.09
2023-01-11T19:27:50.507Z,100753.00
2023-01-11T19:30:39.496Z,100720.25
2023-01-11T19:33:27.220Z,100742.97
2023-01-11T19:36:14.892Z,100742.97
2023-01-11T19:39:02.515Z,100746.28
2023-01-11T19:41:54.320Z,100761.03
2023-01-11T19:44:42.155Z,100703.44
2023-01-11T20:27:28.914Z,100794.88
2023-01-11T20:30:17.825Z,100809.03
2023-01-11T20:33:05.472Z,100811.66
2023-01-11T20:35:53.989Z,100797.63
2023-01-11T20:38:41.977Z,100796.59
2023-01-11T20:41:47.998Z,100803.81
2023-01-11T20:44:35.653Z,100802.38
2023-01-11T20:47:23.367Z,100790.69
2023-01-11T20:50:11.297Z,100799.09
2023-01-11T20:53:00.566Z,100799.91
2023-01-11T20:55:48.110Z,100799.16
2023-01-11T20:58:35.819Z,100801.09
2023-01-11T21:01:30.221Z,100804.34
2023-01-11T21:04:18.777Z,100793.72
2023-01-11T21:07:06.419Z,100809.47
2023-01-11T21:09:55.229Z,100802.75
2023-01-11T21:12:42.841Z,100781.03
2023-01-11T21:15:30.586Z,100799.09
2023-01-11T21:18:18.159Z,100814.03
2023-01-11T21:21:06.505Z,100809.19
2023-01-11T21:23:56.663Z,100788.47
2023-01-11T21:26:45.975Z,100783.03
2023-01-11T21:29:34.185Z,100790.41
2023-01-11T21:32:22.085Z,100816.16
2023-01-11T21:35:09.960Z,100842.06
2023-01-11T21:37:57.932Z,100818.38
2023-01-11T21:40:45.603Z,100819.13
2023-01-11T21:43:33.751Z,100823.94
2023-01-11T21:46:21.464Z,100818.53
2023-01-11T21:49:10.479Z,100831.13
2023-01-11T21:51:58.325Z,100821.53
2023-01-11T21:54:47.944Z,100822.13
2023-01-11T21:57:35.615Z,100802.03
2023-01-11T22:00:23.478Z,100824.25
2023-01-11T22:03:11.201Z,100833.22
2023-01-11T22:06:03.278Z,100814.53
2023-01-11T22:08:51.117Z,100796.94
2023-01-11T22:11:39.735Z,100833.03
2023-01-11T22:14:27.358Z,100829.72
2023-01-11T22:17:15.108Z,100826.53
2023-01-11T22:20:02.732Z,100817.84
2023-01-11T22:22:50.494Z,100795.25
2023-01-11T22:25:38.054Z,100806.38
2023-01-11T22:28:25.880Z,100795.25
2023-01-11T22:31:13.980Z,100791.78
2023-01-11T22:34:01.767Z,100801.53
2023-01-11T22:36:49.851Z,100811.59
2023-01-11T22:39:38.206Z,100794.75
2023-01-11T22:42:25.872Z,100786.34
2023-01-11T22:45:13.619Z,100792.25
2023-01-11T22:48:04.780Z,100799.09
2023-01-11T22:50:52.721Z,100782.50
2023-01-11T22:53:41.965Z,100790.94
2023-01-11T22:56:30.442Z,100768.16
2023-01-11T22:59:18.101Z,100796.44
2023-01-11T23:02:05.824Z,100792.59
2023-01-11T23:04:53.442Z,100798.28
2023-01-11T23:07:43.509Z,100806.97
2023-01-11T23:10:31.192Z,100802.13
2023-01-11T23:13:37.292Z,100762.78
2023-01-11T23:16:25.083Z,100805.84
2023-01-11T23:19:15.210Z,100799.38
2023-01-11T23:22:03.100Z,100809.75
2023-01-11T23:24:50.799Z,100807.03
2023-01-11T23:27:38.532Z,100780.91
2023-01-11T23:30:26.227Z,100778.75
2023-01-11T23:33:13.917Z,100734.31
2023-01-11T23:36:04.729Z,100801.06
2023-01-11T23:38:52.376Z,100775.59
2023-01-11T23:41:58.410Z,100790.31
2023-01-11T23:44:47.241Z,100780.19
2023-01-11T23:47:35.069Z,100769.78
2023-01-11T23:50:22.698Z,100798.06
2023-01-11T23:53:10.441Z,100775.53
2023-01-11T23:55:58.063Z,100786.44
2023-01-11T23:58:45.793Z,100780.69
